sensor_id;sensor_type;location;lat;lon;timestamp;pressure;altitude;pressure_sealevel;temperature;humidity
67397;BME280;57728;50.448;18.824;2023-03-23T00:00:41;97353.41;;;12.96;58.10
67397;BME280;57728;50.448;18.824;2023-03-23T00:02:42;97311.94;;;12.62;58.05
67397;BME280;57728;50.448;18.824;2023-03-23T00:04:45;97344.34;;;12.85;57.98
67397;BME280;57728;50.448;18.824;2023-03-23T00:06:49;97313.31;;;12.64;58.02
67397;BME280;57728;50.448;18.824;2023-03-23T00:08:52;97323.25;;;12.81;58.01
67397;BME280;57728;50.448;18.824;2023-03-23T00:11:00;97362.19;;;12.98;57.99
67397;BME280;57728;50.448;18.824;2023-03-23T00:13:02;97346.81;;;12.92;57.93
67397;BME280;57728;50.448;18.824;2023-03-23T00:15:06;97352.34;;;12.97;57.81
67397;BME280;57728;50.448;18.824;2023-03-23T00:17:14;97363.25;;;12.97;57.97
67397;BME280;57728;50.448;18.824;2023-03-23T00:19:17;97304.56;;;12.62;58.09
67397;BME280;57728;50.448;18.824;2023-03-23T00:21:22;97327.84;;;12.75;57.98
67397;BME280;57728;50.448;18.824;2023-03-23T00:23:44;97303.75;;;12.62;58.06
67397;BME280;57728;50.448;18.824;2023-03-23T00:25:52;97338.78;;;12.75;58.13
67397;BME280;57728;50.448;18.824;2023-03-23T00:27:57;97339.69;;;12.86;58.12
67397;BME280;57728;50.448;18.824;2023-03-23T00:29:59;97363.19;;;12.87;58.20
67397;BME280;57728;50.448;18.824;2023-03-23T00:32:01;97323.47;;;12.69;57.93
67397;BME280;57728;50.448;18.824;2023-03-23T00:34:07;97341.88;;;12.84;58.29
67397;BME280;57728;50.448;18.824;2023-03-23T00:36:13;97327.84;;;12.75;58.01
67397;BME280;57728;50.448;18.824;2023-03-23T00:38:14;97166.91;;;11.78;57.94
67397;BME280;57728;50.448;18.824;2023-03-23T00:40:16;97314.13;;;12.65;58.03
67397;BME280;57728;50.448;18.824;2023-03-23T00:42:18;97332.34;;;12.92;58.04
67397;BME280;57728;50.448;18.824;2023-03-23T00:44:20;97284.59;;;12.56;57.81
67397;BME280;57728;50.448;18.824;2023-03-23T00:46:24;97313.44;;;12.80;58.04
67397;BME280;57728;50.448;18.824;2023-03-23T00:48:28;97281.69;;;12.68;57.75
67397;BME280;57728;50.448;18.824;2023-03-23T00:50:30;97311.81;;;12.84;57.83
67397;BME280;57728;50.448;18.824;2023-03-23T00:52:32;97332.13;;;12.98;57.75
67397;BME280;57728;50.448;18.824;2023-03-23T00:54:34;97282.19;;;12.65;57.59
67397;BME280;57728;50.448;18.824;2023-03-23T00:56:38;97325.81;;;12.93;57.75
67397;BME280;57728;50.448;18.824;2023-03-23T00:58:41;97329.34;;;12.93;57.75
67397;BME280;57728;50.448;18.824;2023-03-23T01:00:44;97222.63;;;12.19;57.63
67397;BME280;57728;50.448;18.824;2023-03-23T01:02:45;97323.03;;;12.82;57.84
67397;BME280;57728;50.448;18.824;2023-03-23T01:04:47;97293.63;;;12.62;57.82
67397;BME280;57728;50.448;18.824;2023-03-23T01:06:53;97202.59;;;12.03;57.95
67397;BME280;57728;50.448;18.824;2023-03-23T01:08:55;97314.47;;;12.73;58.15
67397;BME280;57728;50.448;18.824;2023-03-23T01:11:05;97317.19;;;12.68;58.39
67397;BME280;57728;50.448;18.824;2023-03-23T01:13:08;97273.81;;;12.39;58.28
67397;BME280;57728;50.448;18.824;2023-03-23T01:15:15;97297.63;;;12.44;58.47
67397;BME280;57728;50.448;18.824;2023-03-23T01:17:17;97244.38;;;12.09;58.57
67397;BME280;57728;50.448;18.824;2023-03-23T01:19:20;97304.97;;;12.44;58.69
67397;BME280;57728;50.448;18.824;2023-03-23T01:21:22;97297.78;;;12.32;58.55
67397;BME280;57728;50.448;18.824;2023-03-23T01:23:23;97314.28;;;12.48;58.79
67397;BME280;57728;50.448;18.824;2023-03-23T01:25:29;97321.66;;;12.47;59.08
67397;BME280;57728;50.448;18.824;2023-03-23T01:27:32;97223.66;;;11.81;58.88
67397;BME280;57728;50.448;18.824;2023-03-23T01:29:35;97116.19;;;11.17;58.90
67397;BME280;57728;50.448;18.824;2023-03-23T01:31:38;97238.19;;;11.92;59.06
67397;BME280;57728;50.448;18.824;2023-03-23T01:33:42;97320.25;;;12.45;59.08
67397;BME280;57728;50.448;18.824;2023-03-23T01:35:44;97319.47;;;12.44;59.00
67397;BME280;57728;50.448;18.824;2023-03-23T01:37:47;97311.00;;;12.46;58.90
67397;BME280;57728;50.448;18.824;2023-03-23T01:39:49;97286.53;;;12.24;59.07
67397;BME280;57728;50.448;18.824;2023-03-23T01:41:50;97257.25;;;12.14;59.16
67397;BME280;57728;50.448;18.824;2023-03-23T01:44:03;97323.28;;;12.48;58.95
67397;BME280;57728;50.448;18.824;2023-03-23T01:46:34;97269.06;;;12.25;59.16
67397;BME280;57728;50.448;18.824;2023-03-23T01:48:38;97261.16;;;12.23;58.94
67397;BME280;57728;50.448;18.824;2023-03-23T01:53:06;97279.50;;;12.33;59.06
67397;BME280;57728;50.448;18.824;2023-03-23T01:55:12;97308.28;;;12.46;58.99
67397;BME280;57728;50.448;18.824;2023-03-23T01:57:17;97311.28;;;12.44;59.08
67397;BME280;57728;50.448;18.824;2023-03-23T01:59:24;97311.28;;;12.44;59.03
67397;BME280;57728;50.448;18.824;2023-03-23T02:01:49;97302.22;;;12.44;59.06
67397;BME280;57728;50.448;18.824;2023-03-23T02:03:56;97248.25;;;12.13;59.15
67397;BME280;57728;50.448;18.824;2023-03-23T02:05:59;97150.56;;;11.50;59.17
67397;BME280;57728;50.448;18.824;2023-03-23T02:08:24;97282.66;;;12.19;59.01
67397;BME280;57728;50.448;18.824;2023-03-23T02:10:31;97293.72;;;12.35;59.30
67397;BME280;57728;50.448;18.824;2023-03-23T02:12:33;97268.69;;;12.11;59.29
67397;BME280;57728;50.448;18.824;2023-03-23T02:14:35;97270.88;;;12.14;59.38
67397;BME280;57728;50.448;18.824;2023-03-23T02:16:53;97274.13;;;12.11;59.43
67397;BME280;57728;50.448;18.824;2023-03-23T02:26:47;97294.19;;;12.27;59.62
67397;BME280;57728;50.448;18.824;2023-03-23T02:31:28;97281.31;;;12.22;59.58
67397;BME280;57728;50.448;18.824;2023-03-23T02:33:36;97283.47;;;12.20;59.81
67397;BME280;57728;50.448;18.824;2023-03-23T02:36:14;97278.28;;;12.18;59.77
67397;BME280;57728;50.448;18.824;2023-03-23T02:38:50;97253.03;;;12.01;59.51
67397;BME280;57728;50.448;18.824;2023-03-23T02:41:01;97287.31;;;12.19;59.86
67397;BME280;57728;50.448;18.824;2023-03-23T02:43:11;97243.97;;;11.95;59.82
67397;BME280;57728;50.448;18.824;2023-03-23T02:45:17;97228.44;;;11.96;59.57
67397;BME280;57728;50.448;18.824;2023-03-23T02:47:27;97171.56;;;11.50;59.62
67397;BME280;57728;50.448;18.824;2023-03-23T02:49:34;97235.28;;;11.98;59.36
67397;BME280;57728;50.448;18.824;2023-03-23T02:51:39;97275.34;;;12.25;59.51
67397;BME280;57728;50.448;18.824;2023-03-23T02:53:49;97201.84;;;11.81;59.36
67397;BME280;57728;50.448;18.824;2023-03-23T02:55:56;97269.66;;;12.32;59.34
67397;BME280;57728;50.448;18.824;2023-03-23T02:58:02;97214.78;;;11.96;59.24
67397;BME280;57728;50.448;18.824;2023-03-23T03:00:06;97258.53;;;12.38;59.03
67397;BME280;57728;50.448;18.824;2023-03-23T03:02:31;97224.50;;;12.14;58.74
67397;BME280;57728;50.448;18.824;2023-03-23T03:04:48;97243.19;;;12.32;58.54
67397;BME280;57728;50.448;18.824;2023-03-23T03:07:30;97260.25;;;12.50;58.55
67397;BME280;57728;50.448;18.824;2023-03-23T03:10:17;97270.38;;;12.54;58.28
67397;BME280;57728;50.448;18.824;2023-03-23T03:15:16;97264.13;;;12.59;58.28
67397;BME280;57728;50.448;18.824;2023-03-23T03:17:25;97227.41;;;12.39;57.97
67397;BME280;57728;50.448;18.824;2023-03-23T03:19:40;97263.84;;;12.61;58.08
67397;BME280;57728;50.448;18.824;2023-03-23T03:21:48;97273.72;;;12.62;57.68
67397;BME280;57728;50.448;18.824;2023-03-23T03:24:02;97092.78;;;11.53;57.69
67397;BME280;57728;50.448;18.824;2023-03-23T03:26:06;97269.59;;;12.59;57.76
67397;BME280;57728;50.448;18.824;2023-03-23T03:28:20;97066.19;;;11.33;57.79
67397;BME280;57728;50.448;18.824;2023-03-23T03:30:30;97257.28;;;12.56;57.76
67397;BME280;57728;50.448;18.824;2023-03-23T03:32:50;97229.88;;;12.41;57.92
67397;BME280;57728;50.448;18.824;2023-03-23T03:34:55;97226.25;;;12.30;57.96
67397;BME280;57728;50.448;18.824;2023-03-23T03:36:58;97258.63;;;12.54;58.02
67397;BME280;57728;50.448;18.824;2023-03-23T03:39:07;97246.78;;;12.38;57.80
67397;BME280;57728;50.448;18.824;2023-03-23T03:41:11;97275.84;;;12.54;57.96
67397;BME280;57728;50.448;18.824;2023-03-23T03:43:12;97271.47;;;12.53;57.85
67397;BME280;57728;50.448;18.824;2023-03-23T03:45:18;97273.66;;;12.51;57.83
67397;BME280;57728;50.448;18.824;2023-03-23T03:47:20;97276.38;;;12.51;57.90
67397;BME280;57728;50.448;18.824;2023-03-23T03:49:22;97271.19;;;12.50;57.85
67397;BME280;57728;50.448;18.824;2023-03-23T03:51:26;97238.81;;;12.31;57.99
67397;BME280;57728;50.448;18.824;2023-03-23T03:53:30;97271.69;;;12.47;58.00
67397;BME280;57728;50.448;18.824;2023-03-23T03:55:33;97280.41;;;12.44;58.03
67397;BME280;57728;50.448;18.824;2023-03-23T03:57:43;97236.47;;;12.13;58.23
67397;BME280;57728;50.448;18.824;2023-03-23T04:00:08;97220.59;;;12.04;58.36
67397;BME280;57728;50.448;18.824;2023-03-23T04:02:15;97263.28;;;12.21;58.14
67397;BME280;57728;50.448;18.824;2023-03-23T04:04:21;97260.56;;;12.21;58.52
67397;BME280;57728;50.448;18.824;2023-03-23T04:06:23;97256.16;;;12.15;58.53
67397;BME280;57728;50.448;18.824;2023-03-23T04:08:26;97278.94;;;12.31;58.33
67397;BME280;57728;50.448;18.824;2023-03-23T04:10:30;97259.97;;;12.14;58.65
67397;BME280;57728;50.448;18.824;2023-03-23T04:12:32;97241.06;;;12.07;58.43
67397;BME280;57728;50.448;18.824;2023-03-23T04:15:09;97266.28;;;12.19;58.69
67397;BME280;57728;50.448;18.824;2023-03-23T04:17:12;97142.03;;;11.42;58.78
67397;BME280;57728;50.448;18.824;2023-03-23T04:19:16;97245.19;;;12.10;58.75
67397;BME280;57728;50.448;18.824;2023-03-23T04:21:19;97230.13;;;12.02;58.85
67397;BME280;57728;50.448;18.824;2023-03-23T04:23:27;97232.72;;;11.92;58.70
67397;BME280;57728;50.448;18.824;2023-03-23T04:25:34;97234.16;;;11.94;58.87
67397;BME280;57728;50.448;18.824;2023-03-23T04:27:36;97228.00;;;11.82;58.89
67397;BME280;57728;50.448;18.824;2023-03-23T04:29:41;97210.13;;;11.64;59.10
67397;BME280;57728;50.448;18.824;2023-03-23T04:32:04;97233.72;;;11.80;59.26
67397;BME280;57728;50.448;18.824;2023-03-23T04:34:11;97198.81;;;11.50;59.27
67397;BME280;57728;50.448;18.824;2023-03-23T04:36:21;97258.75;;;11.72;59.58
67397;BME280;57728;50.448;18.824;2023-03-23T04:38:32;97265.81;;;11.73;59.72
67397;BME280;57728;50.448;18.824;2023-03-23T04:40:43;97252.41;;;11.66;59.99
67397;BME280;57728;50.448;18.824;2023-03-23T04:43:00;97041.09;;;10.27;60.02
67397;BME280;57728;50.448;18.824;2023-03-23T04:45:24;97140.13;;;10.88;60.37
67397;BME280;57728;50.448;18.824;2023-03-23T04:47:32;97247.06;;;11.49;60.37
67397;BME280;57728;50.448;18.824;2023-03-23T04:49:41;97210.00;;;11.26;60.44
67397;BME280;57728;50.448;18.824;2023-03-23T04:51:50;97244.34;;;11.49;60.56
67397;BME280;57728;50.448;18.824;2023-03-23T04:54:01;97234.13;;;11.40;60.78
67397;BME280;57728;50.448;18.824;2023-03-23T04:56:05;97256.56;;;11.47;60.71
67397;BME280;57728;50.448;18.824;2023-03-23T04:58:14;97183.09;;;11.08;60.85
67397;BME280;57728;50.448;18.824;2023-03-23T05:00:43;97132.66;;;10.78;60.80
67397;BME280;57728;50.448;18.824;2023-03-23T05:02:52;97205.63;;;11.25;60.80
67397;BME280;57728;50.448;18.824;2023-03-23T05:04:57;97220.44;;;11.34;60.97
67397;BME280;57728;50.448;18.824;2023-03-23T05:07:01;97249.19;;;11.47;60.88
67397;BME280;57728;50.448;18.824;2023-03-23T05:09:06;97225.84;;;11.29;60.90
67397;BME280;57728;50.448;18.824;2023-03-23T05:11:07;97244.56;;;11.48;60.80
67397;BME280;57728;50.448;18.824;2023-03-23T05:13:12;97146.25;;;10.78;60.92
67397;BME280;57728;50.448;18.824;2023-03-23T05:15:16;97175.19;;;11.06;60.89
67397;BME280;57728;50.448;18.824;2023-03-23T05:17:19;97221.00;;;11.36;60.86
67397;BME280;57728;50.448;18.824;2023-03-23T05:19:24;97209.00;;;11.32;61.04
67397;BME280;57728;50.448;18.824;2023-03-23T05:21:27;97245.75;;;11.57;60.89
67397;BME280;57728;50.448;18.824;2023-03-23T05:23:29;97255.06;;;11.61;60.89
67397;BME280;57728;50.448;18.824;2023-03-23T05:25:40;97184.59;;;11.21;60.79
67397;BME280;57728;50.448;18.824;2023-03-23T05:27:49;97257.28;;;11.64;60.77
67397;BME280;57728;50.448;18.824;2023-03-23T05:30:16;97235.94;;;11.56;60.68
67397;BME280;57728;50.448;18.824;2023-03-23T05:32:18;97243.59;;;11.59;60.36
67397;BME280;57728;50.448;18.824;2023-03-23T05:34:24;97262.28;;;11.73;60.62
67397;BME280;57728;50.448;18.824;2023-03-23T05:36:31;97176.94;;;11.17;60.37
67397;BME280;57728;50.448;18.824;2023-03-23T05:39:08;97085.50;;;10.72;60.07
67397;BME280;57728;50.448;18.824;2023-03-23T05:41:39;97233.00;;;11.63;60.21
67397;BME280;57728;50.448;18.824;2023-03-23T05:43:40;97042.97;;;10.44;59.95
67397;BME280;57728;50.448;18.824;2023-03-23T05:45:55;97268.44;;;11.90;59.82
67397;BME280;57728;50.448;18.824;2023-03-23T05:47:57;97281.34;;;11.95;59.86
67397;BME280;57728;50.448;18.824;2023-03-23T05:50:02;97236.34;;;11.70;59.63
67397;BME280;57728;50.448;18.824;2023-03-23T05:52:05;97258.38;;;11.91;59.50
67397;BME280;57728;50.448;18.824;2023-03-23T05:54:08;97277.00;;;11.99;59.38
67397;BME280;57728;50.448;18.824;2023-03-23T05:56:11;97243.88;;;11.85;59.47
67397;BME280;57728;50.448;18.824;2023-03-23T05:58:35;97280.13;;;12.08;59.25
67397;BME280;57728;50.448;18.824;2023-03-23T06:00:39;97285.84;;;12.11;58.92
67397;BME280;57728;50.448;18.824;2023-03-23T06:02:54;97232.34;;;11.78;59.04
67397;BME280;57728;50.448;18.824;2023-03-23T06:05:05;97252.78;;;12.02;58.88
67397;BME280;57728;50.448;18.824;2023-03-23T06:07:10;97240.47;;;12.00;58.56
67397;BME280;57728;50.448;18.824;2023-03-23T06:09:17;97278.06;;;12.25;58.54
67397;BME280;57728;50.448;18.824;2023-03-23T06:11:52;97145.28;;;11.39;58.61
67397;BME280;57728;50.448;18.824;2023-03-23T06:14:08;97226.72;;;11.90;58.14
67397;BME280;57728;50.448;18.824;2023-03-23T06:16:10;97246.91;;;12.16;58.09
67397;BME280;57728;50.448;18.824;2023-03-23T06:18:26;97278.41;;;12.34;57.97
67397;BME280;57728;50.448;18.824;2023-03-23T06:20:52;97265.63;;;12.39;57.88
67397;BME280;57728;50.448;18.824;2023-03-23T06:23:05;97066.38;;;11.22;57.86
67397;BME280;57728;50.448;18.824;2023-03-23T06:25:09;97209.47;;;12.11;57.79
67397;BME280;57728;50.448;18.824;2023-03-23T06:27:17;97270.91;;;12.51;57.54
67397;BME280;57728;50.448;18.824;2023-03-23T06:29:20;97173.31;;;11.94;57.58
67397;BME280;57728;50.448;18.824;2023-03-23T06:31:27;97270.94;;;12.56;57.45
67397;BME280;57728;50.448;18.824;2023-03-23T06:33:30;97227.38;;;12.34;57.48
67397;BME280;57728;50.448;18.824;2023-03-23T06:35:58;97171.09;;;11.91;57.39
67397;BME280;57728;50.448;18.824;2023-03-23T06:38:13;97236.72;;;12.44;57.35
67397;BME280;57728;50.448;18.824;2023-03-23T06:40:23;97202.22;;;12.27;57.47
67397;BME280;57728;50.448;18.824;2023-03-23T06:42:28;97258.72;;;12.64;57.35
67397;BME280;57728;50.448;18.824;2023-03-23T06:44:50;97242.84;;;12.61;57.01
67397;BME280;57728;50.448;18.824;2023-03-23T06:46:53;97262.63;;;12.79;57.11
67397;BME280;57728;50.448;18.824;2023-03-23T06:49:01;97094.03;;;11.68;56.80
67397;BME280;57728;50.448;18.824;2023-03-23T06:51:11;97278.47;;;12.82;56.89
67397;BME280;57728;50.448;18.824;2023-03-23T06:53:15;97248.66;;;12.70;57.11
67397;BME280;57728;50.448;18.824;2023-03-23T06:55:19;97281.78;;;12.89;56.85
67397;BME280;57728;50.448;18.824;2023-03-23T06:57:20;97277.16;;;12.89;56.73
67397;BME280;57728;50.448;18.824;2023-03-23T06:59:25;97205.63;;;12.45;56.55
67397;BME280;57728;50.448;18.824;2023-03-23T07:01:27;97258.53;;;12.81;56.62
67397;BME280;57728;50.448;18.824;2023-03-23T07:03:34;97246.47;;;12.72;56.58
67397;BME280;57728;50.448;18.824;2023-03-23T07:05:36;97286.53;;;13.04;56.49
67397;BME280;57728;50.448;18.824;2023-03-23T07:07:40;97235.25;;;12.73;56.23
67397;BME280;57728;50.448;18.824;2023-03-23T07:09:56;97261.91;;;12.94;56.18
67397;BME280;57728;50.448;18.824;2023-03-23T07:12:00;97208.19;;;12.62;56.14
67397;BME280;57728;50.448;18.824;2023-03-23T07:14:07;97204.88;;;12.60;56.08
67397;BME280;57728;50.448;18.824;2023-03-23T07:16:08;97275.59;;;13.09;55.93
67397;BME280;57728;50.448;18.824;2023-03-23T07:18:13;97130.13;;;12.18;55.89
67397;BME280;57728;50.448;18.824;2023-03-23T07:20:19;97236.69;;;12.86;55.57
67397;BME280;57728;50.448;18.824;2023-03-23T07:22:20;97219.22;;;12.82;55.61
67397;BME280;57728;50.448;18.824;2023-03-23T07:24:30;97235.16;;;13.01;55.72
67397;BME280;57728;50.448;18.824;2023-03-23T07:26:54;97262.56;;;13.16;55.67
67397;BME280;57728;50.448;18.824;2023-03-23T07:28:57;97229.13;;;12.94;55.29
67397;BME280;57728;50.448;18.824;2023-03-23T07:31:06;97066.56;;;11.80;55.42
67397;BME280;57728;50.448;18.824;2023-03-23T07:33:10;97271.53;;;13.12;55.11
67397;BME280;57728;50.448;18.824;2023-03-23T07:35:12;97249.09;;;13.04;55.19
67397;BME280;57728;50.448;18.824;2023-03-23T07:37:32;97296.03;;;13.39;55.13
67397;BME280;57728;50.448;18.824;2023-03-23T07:39:35;97178.69;;;12.59;55.19
67397;BME280;57728;50.448;18.824;2023-03-23T07:41:37;97249.13;;;13.15;55.11
67397;BME280;57728;50.448;18.824;2023-03-23T07:43:50;97211.91;;;13.03;55.22
67397;BME280;57728;50.448;18.824;2023-03-23T07:45:57;97293.09;;;13.61;54.94
67397;BME280;57728;50.448;18.824;2023-03-23T07:48:04;97295.84;;;13.66;54.81
67397;BME280;57728;50.448;18.824;2023-03-23T07:50:08;97295.03;;;13.71;54.77
67397;BME280;57728;50.448;18.824;2023-03-23T07:52:14;97243.00;;;13.45;54.45
67397;BME280;57728;50.448;18.824;2023-03-23T07:54:15;97223.59;;;13.47;54.27
67397;BME280;57728;50.448;18.824;2023-03-23T07:56:37;97265.50;;;13.73;53.92
67397;BME280;57728;50.448;18.824;2023-03-23T07:58:54;97234.03;;;13.60;53.84
67397;BME280;57728;50.448;18.824;2023-03-23T08:00:56;97304.97;;;14.03;53.99
67397;BME280;57728;50.448;18.824;2023-03-23T08:03:05;97256.25;;;13.95;53.87
67397;BME280;57728;50.448;18.824;2023-03-23T08:05:07;97194.09;;;13.69;53.66
67397;BME280;57728;50.448;18.824;2023-03-23T08:07:42;97210.53;;;13.90;53.34
67397;BME280;57728;50.448;18.824;2023-03-23T08:10:12;97280.91;;;14.36;52.88
67397;BME280;57728;50.448;18.824;2023-03-23T08:12:15;97072.03;;;13.01;52.35
67397;BME280;57728;50.448;18.824;2023-03-23T08:14:44;97252.97;;;14.23;52.50
67397;BME280;57728;50.448;18.824;2023-03-23T08:17:09;97271.84;;;14.40;52.10
67397;BME280;57728;50.448;18.824;2023-03-23T08:19:20;97229.16;;;14.19;52.30
67397;BME280;57728;50.448;18.824;2023-03-23T08:21:55;97255.97;;;14.37;51.79
67397;BME280;57728;50.448;18.824;2023-03-23T08:24:24;97249.94;;;14.45;51.96
67397;BME280;57728;50.448;18.824;2023-03-23T08:26:57;97252.66;;;14.56;51.92
67397;BME280;57728;50.448;18.824;2023-03-23T08:29:19;97264.16;;;14.84;51.39
67397;BME280;57728;50.448;18.824;2023-03-23T08:31:39;97273.16;;;15.05;51.58
67397;BME280;57728;50.448;18.824;2023-03-23T08:34:00;97190.16;;;14.94;51.33
67397;BME280;57728;50.448;18.824;2023-03-23T08:36:25;97257.78;;;15.74;50.30
67397;BME280;57728;50.448;18.824;2023-03-23T08:38:30;97252.94;;;16.06;49.70
67397;BME280;57728;50.448;18.824;2023-03-23T08:41:10;97188.72;;;16.02;49.05
67397;BME280;57728;50.448;18.824;2023-03-23T08:43:42;97180.81;;;16.29;47.78
67397;BME280;57728;50.448;18.824;2023-03-23T08:46:03;97258.66;;;16.78;46.87
67397;BME280;57728;50.448;18.824;2023-03-23T08:48:28;97244.16;;;16.73;46.60
67397;BME280;57728;50.448;18.824;2023-03-23T08:50:50;97244.00;;;16.59;46.59
67397;BME280;57728;50.448;18.824;2023-03-23T08:53:11;97226.03;;;16.37;46.87
67397;BME280;57728;50.448;18.824;2023-03-23T08:55:33;97246.19;;;16.57;46.90
67397;BME280;57728;50.448;18.824;2023-03-23T08:57:53;97260.50;;;16.59;46.88
67397;BME280;57728;50.448;18.824;2023-03-23T09:00:10;97241.88;;;16.80;46.87
67397;BME280;57728;50.448;18.824;2023-03-23T09:02:36;97257.81;;;17.75;46.51
67397;BME280;57728;50.448;18.824;2023-03-23T09:04:48;97255.34;;;18.49;43.93
67397;BME280;57728;50.448;18.824;2023-03-23T09:07:19;97221.97;;;18.65;43.36
67397;BME280;57728;50.448;18.824;2023-03-23T09:09:21;97224.34;;;18.71;42.37
67397;BME280;57728;50.448;18.824;2023-03-23T09:11:23;97271.84;;;18.82;42.82
67397;BME280;57728;50.448;18.824;2023-03-23T09:13:24;97267.97;;;18.50;42.65
67397;BME280;57728;50.448;18.824;2023-03-23T09:15:26;97210.59;;;18.06;43.15
67397;BME280;57728;50.448;18.824;2023-03-23T09:17:28;97151.78;;;18.15;43.21
67397;BME280;57728;50.448;18.824;2023-03-23T09:19:32;97198.88;;;19.07;42.46
67397;BME280;57728;50.448;18.824;2023-03-23T09:21:34;97270.41;;;20.10;41.62
67397;BME280;57728;50.448;18.824;2023-03-23T09:23:37;97259.66;;;20.68;39.99
67397;BME280;57728;50.448;18.824;2023-03-23T09:25:39;97250.53;;;20.99;38.14
67397;BME280;57728;50.448;18.824;2023-03-23T09:27:41;97221.84;;;20.86;38.22
67397;BME280;57728;50.448;18.824;2023-03-23T09:29:44;97247.81;;;21.07;38.23
67397;BME280;57728;50.448;18.824;2023-03-23T09:31:46;97276.16;;;21.13;38.47
67397;BME280;57728;50.448;18.824;2023-03-23T09:33:48;97257.16;;;21.29;38.67
67397;BME280;57728;50.448;18.824;2023-03-23T09:35:53;97233.66;;;21.49;37.89
67397;BME280;57728;50.448;18.824;2023-03-23T09:37:54;97255.72;;;21.80;36.99
67397;BME280;57728;50.448;18.824;2023-03-23T09:39:56;97291.00;;;21.57;35.87
67397;BME280;57728;50.448;18.824;2023-03-23T09:47:14;97268.19;;;20.80;35.76
67397;BME280;57728;50.448;18.824;2023-03-23T09:49:34;97245.44;;;20.38;36.52
67397;BME280;57728;50.448;18.824;2023-03-23T09:51:51;97243.28;;;19.89;37.32
67397;BME280;57728;50.448;18.824;2023-03-23T09:54:10;97136.69;;;19.38;37.51
67397;BME280;57728;50.448;18.824;2023-03-23T09:56:30;97208.75;;;20.23;37.05
67397;BME280;57728;50.448;18.824;2023-03-23T09:58:53;97251.81;;;20.92;36.36
67397;BME280;57728;50.448;18.824;2023-03-23T10:03:26;97237.16;;;22.07;35.01
67397;BME280;57728;50.448;18.824;2023-03-23T10:07:38;97229.19;;;23.06;33.64
67397;BME280;57728;50.448;18.824;2023-03-23T10:09:43;97226.50;;;23.57;33.23
67397;BME280;57728;50.448;18.824;2023-03-23T10:12:10;97215.16;;;23.41;32.12
67397;BME280;57728;50.448;18.824;2023-03-23T10:16:34;97246.31;;;22.52;33.29
67397;BME280;57728;50.448;18.824;2023-03-23T10:20:58;97235.50;;;21.22;34.44
67397;BME280;57728;50.448;18.824;2023-03-23T10:25:26;97226.47;;;20.22;35.61
67397;BME280;57728;50.448;18.824;2023-03-23T10:32:51;97225.72;;;19.30;37.69
67397;BME280;57728;50.448;18.824;2023-03-23T10:35:04;97229.09;;;19.27;38.10
67397;BME280;57728;50.448;18.824;2023-03-23T10:39:31;97254.47;;;18.82;38.44
67397;BME280;57728;50.448;18.824;2023-03-23T10:41:40;97244.00;;;18.51;38.78
67397;BME280;57728;50.448;18.824;2023-03-23T10:43:43;97225.78;;;18.36;39.33
67397;BME280;57728;50.448;18.824;2023-03-23T10:45:55;97245.69;;;18.33;39.30
67397;BME280;57728;50.448;18.824;2023-03-23T10:48:14;97226.94;;;18.16;39.38
67397;BME280;57728;50.448;18.824;2023-03-23T10:50:30;97210.22;;;17.93;40.07
67397;BME280;57728;50.448;18.824;2023-03-23T10:52:39;97223.53;;;18.05;40.35
67397;BME280;57728;50.448;18.824;2023-03-23T10:54:56;97223.03;;;18.03;40.61
67397;BME280;57728;50.448;18.824;2023-03-23T10:57:23;97113.97;;;17.31;40.48
67397;BME280;57728;50.448;18.824;2023-03-23T10:59:31;97232.81;;;18.09;40.84
67397;BME280;57728;50.448;18.824;2023-03-23T11:01:35;97218.69;;;17.78;40.59
67397;BME280;57728;50.448;18.824;2023-03-23T11:03:42;97230.91;;;18.10;40.64
67397;BME280;57728;50.448;18.824;2023-03-23T11:06:06;97215.72;;;17.93;41.05
67397;BME280;57728;50.448;18.824;2023-03-23T11:08:16;97241.09;;;18.09;41.05
67397;BME280;57728;50.448;18.824;2023-03-23T11:10:36;97199.41;;;17.78;40.84
67397;BME280;57728;50.448;18.824;2023-03-23T11:12:44;97238.41;;;18.04;40.94
67397;BME280;57728;50.448;18.824;2023-03-23T11:14:47;97216.78;;;17.97;41.46
67397;BME280;57728;50.448;18.824;2023-03-23T11:16:52;97185.94;;;17.76;41.42
67397;BME280;57728;50.448;18.824;2023-03-23T11:19:11;97188.78;;;17.90;41.08
67397;BME280;57728;50.448;18.824;2023-03-23T11:21:15;97182.00;;;18.01;41.21
67397;BME280;57728;50.448;18.824;2023-03-23T11:25:25;97225.03;;;18.49;40.76
67397;BME280;57728;50.448;18.824;2023-03-23T11:27:28;97154.25;;;17.98;40.73
67397;BME280;57728;50.448;18.824;2023-03-23T11:29:31;97235.13;;;18.54;40.91
67397;BME280;57728;50.448;18.824;2023-03-23T11:31:36;97244.81;;;18.51;40.65
67397;BME280;57728;50.448;18.824;2023-03-23T11:36:02;97234.72;;;18.47;40.83
67397;BME280;57728;50.448;18.824;2023-03-23T11:38:04;97234.28;;;18.53;40.51
67397;BME280;57728;50.448;18.824;2023-03-23T11:42:19;97223.72;;;18.61;40.83
67397;BME280;57728;50.448;18.824;2023-03-23T11:44:32;97181.06;;;18.72;40.92
67397;BME280;57728;50.448;18.824;2023-03-23T11:49:41;97238.91;;;20.34;38.23
67397;BME280;57728;50.448;18.824;2023-03-23T11:51:54;97206.41;;;20.62;38.31
67397;BME280;57728;50.448;18.824;2023-03-23T11:58:36;97198.69;;;22.06;35.60
67397;BME280;57728;50.448;18.824;2023-03-23T12:01:09;97206.00;;;22.28;35.05
67397;BME280;57728;50.448;18.824;2023-03-23T12:05:59;97228.06;;;22.33;34.76
67397;BME280;57728;50.448;18.824;2023-03-23T12:27:09;97225.13;;;20.96;35.79
67397;BME280;57728;50.448;18.824;2023-03-23T12:41:57;97231.31;;;19.52;38.88
67397;BME280;57728;50.448;18.824;2023-03-23T12:44:23;97223.38;;;19.37;39.47
67397;BME280;57728;50.448;18.824;2023-03-23T12:46:53;97231.25;;;19.30;39.79